Time;durP1;ratioP1;P1;durP2;ratioP2;P2;SDS_P1;SDS_P2;PMS_P1;PMS_P2;Temp;Humidity;BMP_temperature;BMP_pressure;BME280_temperature;BME280_humidity;BME280_pressure;Samples;Min_cycle;Max_cycle;Signal;HPM_P1;HPM_P2
2022/11/03 00:00:59;;;;;;;8.07;6.07;;;10.30;99.90;;;;;;5105726;28;20173;-54
2022/11/03 00:03:25;;;;;;;9.07;6.30;;;10.30;99.90;;;;;;5108304;28;20174;-57
2022/11/03 00:06:03;;;;;;;6.73;5.47;;;10.20;99.90;;;;;;5098125;28;20178;-57
2022/11/03 00:08:37;;;;;;;7.00;6.30;;;10.20;99.90;;;;;;5097427;28;20243;-54
2022/11/03 00:11:11;;;;;;;7.23;6.17;;;10.20;99.90;;;;;;5091944;28;20189;-56
2022/11/03 00:13:39;;;;;;;7.03;5.90;;;9.90;99.90;;;;;;5092614;28;20181;-56
2022/11/03 00:16:05;;;;;;;7.97;5.93;;;9.70;99.90;;;;;;5093981;28;20198;-53
2022/11/03 00:18:30;;;;;;;7.60;6.20;;;9.70;99.90;;;;;;5109240;28;20189;-54
2022/11/03 00:21:04;;;;;;;7.13;6.43;;;9.80;99.90;;;;;;5097606;28;20178;-56
2022/11/03 00:23:33;;;;;;;7.77;6.43;;;9.90;99.90;;;;;;5099497;28;20542;-58
2022/11/03 00:26:15;;;;;;;7.97;6.67;;;10.00;99.90;;;;;;5110895;28;20796;-56
2022/11/03 00:28:43;;;;;;;9.40;6.40;;;10.00;99.90;;;;;;5095101;28;20713;-56
2022/11/03 00:31:16;;;;;;;8.67;7.00;;;10.00;99.90;;;;;;5093580;28;20166;-57
2022/11/03 00:33:42;;;;;;;8.87;7.00;;;10.00;99.90;;;;;;5093147;28;20253;-57
2022/11/03 00:36:11;;;;;;;9.37;6.80;;;9.90;99.90;;;;;;5100481;28;20182;-57
2022/11/03 00:38:36;;;;;;;7.33;6.53;;;10.10;99.90;;;;;;5091104;28;20194;-57
2022/11/03 00:41:04;;;;;;;8.47;6.53;;;10.10;99.90;;;;;;5108288;28;20305;-58
2022/11/03 00:43:31;;;;;;;7.60;5.87;;;10.10;99.90;;;;;;5106927;28;20188;-54
2022/11/03 00:45:57;;;;;;;6.83;6.03;;;10.10;99.90;;;;;;5097527;28;20257;-55
2022/11/03 00:48:29;;;;;;;8.73;6.70;;;10.10;99.90;;;;;;5069238;28;20190;-54
2022/11/03 00:51:11;;;;;;;10.20;7.37;;;10.00;99.90;;;;;;5098847;28;20197;-55
2022/11/03 00:53:39;;;;;;;9.20;7.17;;;10.00;99.90;;;;;;5096345;28;20180;-56
2022/11/03 00:56:06;;;;;;;11.73;7.83;;;10.00;99.90;;;;;;5095990;28;20265;-59
2022/11/03 00:58:32;;;;;;;7.97;6.97;;;10.00;99.90;;;;;;5094370;28;20192;-52
2022/11/03 01:01:06;;;;;;;8.07;7.27;;;9.90;99.90;;;;;;5101894;28;20228;-57
2022/11/03 01:03:33;;;;;;;12.10;7.30;;;9.90;99.90;;;;;;5092421;28;20176;-57
2022/11/03 01:08:44;;;;;;;7.77;6.97;;;9.90;99.90;;;;;;5095398;28;20694;-55
2022/11/03 01:13:57;;;;;;;8.47;6.83;;;9.90;99.90;;;;;;5098980;28;20184;-56
2022/11/03 01:16:23;;;;;;;8.33;7.23;;;9.80;99.90;;;;;;5098669;28;20315;-56
2022/11/03 01:18:49;;;;;;;7.60;6.80;;;9.90;99.90;;;;;;5099279;28;20276;-56
2022/11/03 01:21:15;;;;;;;6.73;5.97;;;9.80;99.90;;;;;;5098954;28;20546;-58
2022/11/03 01:23:41;;;;;;;8.87;6.73;;;9.70;99.90;;;;;;5096029;28;20253;-55
2022/11/03 01:26:09;;;;;;;9.23;7.90;;;9.70;99.90;;;;;;5106630;28;20166;-58
2022/11/03 01:28:36;;;;;;;8.53;6.67;;;10.30;99.90;;;;;;5098985;28;20190;-57
2022/11/03 01:31:06;;;;;;;7.50;6.70;;;9.80;99.90;;;;;;5107925;28;20279;-55
2022/11/03 01:33:32;;;;;;;8.43;6.37;;;9.70;99.90;;;;;;5094981;28;20178;-49
2022/11/03 01:35:57;;;;;;;7.00;6.30;;;9.70;99.90;;;;;;5107041;28;20169;-58
2022/11/03 01:38:23;;;;;;;6.57;5.97;;;9.60;99.90;;;;;;5110348;28;20540;-58
2022/11/03 01:40:49;;;;;;;7.07;6.20;;;9.60;99.90;;;;;;5096644;28;20223;-54
2022/11/03 01:43:20;;;;;;;6.33;5.73;;;9.50;99.90;;;;;;5096421;28;20260;-55
2022/11/03 01:45:48;;;;;;;8.27;5.27;;;9.60;99.90;;;;;;5109584;28;20226;-57
2022/11/03 01:48:15;;;;;;;7.00;5.97;;;9.70;99.90;;;;;;5110853;28;20201;-57
2022/11/03 01:50:43;;;;;;;7.77;5.43;;;9.50;99.90;;;;;;5109727;28;20249;-52
2022/11/03 01:53:11;;;;;;;7.00;6.00;;;9.50;99.90;;;;;;5108946;28;20576;-55
2022/11/03 01:55:40;;;;;;;6.70;5.10;;;9.60;99.90;;;;;;5099063;28;20178;-58
2022/11/03 01:58:22;;;;;;;8.17;5.40;;;9.60;99.90;;;;;;5096557;28;20189;-56
2022/11/03 02:00:52;;;;;;;6.63;5.47;;;9.70;99.90;;;;;;5098255;28;20174;-57
2022/11/03 02:03:18;;;;;;;7.03;5.17;;;9.70;99.90;;;;;;5097950;28;20200;-57
2022/11/03 02:05:45;;;;;;;7.97;5.33;;;9.60;99.90;;;;;;5111261;28;20185;-56
2022/11/03 02:08:31;;;;;;;6.57;4.83;;;9.60;99.90;;;;;;5111200;28;20204;-55
2022/11/03 02:10:57;;;;;;;7.20;4.93;;;9.60;99.90;;;;;;5106081;28;20201;-57
2022/11/03 02:13:26;;;;;;;5.87;4.67;;;9.60;99.90;;;;;;5112470;28;20184;-58
2022/11/03 02:15:58;;;;;;;6.33;4.80;;;9.50;99.90;;;;;;5109461;28;20213;-58
2022/11/03 02:18:28;;;;;;;6.03;4.30;;;9.50;99.90;;;;;;5092735;28;20193;-56
2022/11/03 02:21:20;;;;;;;5.40;4.50;;;9.60;99.90;;;;;;5102483;28;20619;-59
2022/11/03 02:24:06;;;;;;;6.73;4.50;;;9.50;99.90;;;;;;5112241;28;20571;-56
2022/11/03 02:26:31;;;;;;;5.23;4.27;;;9.60;99.90;;;;;;5008201;28;20191;-57
2022/11/03 02:28:57;;;;;;;6.33;4.30;;;9.60;99.90;;;;;;5029347;28;20254;-57
2022/11/03 02:31:40;;;;;;;4.77;3.70;;;9.50;99.90;;;;;;5026582;28;20263;-57
2022/11/03 02:34:26;;;;;;;4.93;4.37;;;9.60;99.90;;;;;;5025847;28;20311;-55
2022/11/03 02:37:00;;;;;;;5.77;4.17;;;9.60;99.90;;;;;;4999090;28;20177;-57
2022/11/03 02:39:33;;;;;;;4.30;3.90;;;9.50;99.90;;;;;;5022481;28;20213;-54
2022/11/03 02:42:02;;;;;;;6.17;3.53;;;9.50;99.90;;;;;;5017604;28;20270;-56
2022/11/03 02:44:28;;;;;;;5.70;3.70;;;9.50;99.90;;;;;;4989337;28;20207;-58
2022/11/03 02:46:59;;;;;;;6.20;3.97;;;9.50;99.90;;;;;;4996949;28;20195;-56
2022/11/03 02:49:25;;;;;;;6.47;4.00;;;9.50;99.90;;;;;;5011845;28;20223;-57
2022/11/03 02:52:01;;;;;;;5.00;3.87;;;9.50;99.90;;;;;;5010528;28;20204;-53
2022/11/03 02:54:47;;;;;;;5.57;3.80;;;9.40;99.90;;;;;;5011293;28;20598;-57
2022/11/03 02:57:22;;;;;;;5.87;3.97;;;9.40;99.90;;;;;;4999079;28;20190;-57
2022/11/03 03:00:08;;;;;;;6.17;3.63;;;9.40;99.90;;;;;;5018386;28;20194;-56
2022/11/03 03:03:06;;;;;;;5.40;3.90;;;9.40;99.90;;;;;;5019317;28;20319;-58
2022/11/03 03:05:34;;;;;;;4.90;3.47;;;9.40;99.90;;;;;;5094136;28;20177;-58
2022/11/03 03:08:04;;;;;;;3.10;2.87;;;9.30;99.90;;;;;;5110803;28;20211;-58
2022/11/03 03:10:38;;;;;;;4.93;3.00;;;9.30;99.90;;;;;;5108113;28;20189;-58
2022/11/03 03:13:06;;;;;;;3.97;3.00;;;9.30;99.90;;;;;;5107148;28;20177;-59
2022/11/03 03:15:51;;;;;;;5.20;3.30;;;9.30;99.90;;;;;;5092556;28;20256;-59
2022/11/03 03:18:36;;;;;;;3.67;3.30;;;9.60;99.90;;;;;;5105869;28;20289;-57
2022/11/03 03:21:09;;;;;;;5.90;3.50;;;9.40;99.90;;;;;;5096848;28;20177;-58
2022/11/03 03:23:46;;;;;;;3.97;3.30;;;9.30;99.90;;;;;;5070749;28;20255;-59
2022/11/03 03:26:23;;;;;;;3.70;3.27;;;9.40;99.90;;;;;;5092849;28;20182;-59
2022/11/03 03:28:55;;;;;;;5.30;3.47;;;9.30;99.90;;;;;;5092125;28;20601;-59
2022/11/03 03:31:23;;;;;;;4.20;3.30;;;9.40;99.90;;;;;;5096746;28;20187;-58
2022/11/03 03:33:51;;;;;;;4.37;3.00;;;9.30;99.90;;;;;;5106616;28;20199;-59
2022/11/03 03:36:18;;;;;;;4.90;3.40;;;9.60;99.90;;;;;;5107780;28;20174;-59
2022/11/03 03:38:49;;;;;;;6.00;3.30;;;9.20;99.90;;;;;;5107279;28;20246;-59
2022/11/03 03:41:20;;;;;;;4.83;3.00;;;9.10;99.90;;;;;;5101552;28;20253;-56
2022/11/03 03:43:51;;;;;;;3.40;3.10;;;9.10;99.90;;;;;;5099471;28;20223;-52
2022/11/03 03:46:18;;;;;;;4.97;2.80;;;9.20;99.90;;;;;;5093358;28;20186;-56
2022/11/03 03:48:44;;;;;;;3.13;2.80;;;9.30;99.90;;;;;;5091710;28;20200;-55
2022/11/03 03:51:12;;;;;;;4.33;2.80;;;9.50;99.90;;;;;;5099592;28;20181;-54
2022/11/03 03:53:38;;;;;;;4.63;2.80;;;9.30;99.90;;;;;;5107904;28;20534;-56
2022/11/03 03:56:06;;;;;;;3.80;2.80;;;9.30;99.90;;;;;;5109448;28;20178;-56
2022/11/03 03:58:32;;;;;;;3.13;2.83;;;9.20;99.90;;;;;;5078972;28;20189;-54
2022/11/03 04:00:58;;;;;;;2.93;2.67;;;9.30;99.90;;;;;;5105434;28;20721;-51
2022/11/03 04:03:25;;;;;;;4.07;2.90;;;9.30;99.90;;;;;;5093473;28;20715;-51
2022/11/03 04:05:52;;;;;;;7.77;3.03;;;9.30;99.90;;;;;;5093281;28;20178;-57
2022/11/03 04:08:18;;;;;;;2.73;2.53;;;9.20;99.90;;;;;;5091698;28;20270;-55
2022/11/03 04:22:15;;;;;;;4.03;2.87;;;9.20;99.90;;;;;;5093047;28;20284;-57
2022/11/03 04:24:29;;;;;;;2.73;2.43;;;9.20;99.90;;;;;;5106558;28;20192;-56
2022/11/03 04:27:13;;;;;;;4.70;2.57;;;9.20;99.90;;;;;;5090478;28;20178;-56
2022/11/03 04:29:39;;;;;;;4.30;2.33;;;9.40;99.90;;;;;;5072650;28;20205;-53
2022/11/03 04:32:14;;;;;;;3.07;2.57;;;9.10;99.90;;;;;;5108906;28;20731;-56
2022/11/03 04:34:41;;;;;;;4.23;2.90;;;9.40;99.90;;;;;;5096016;28;20223;-57
2022/11/03 04:37:12;;;;;;;4.20;3.03;;;9.10;99.90;;;;;;5095574;28;20162;-53
2022/11/03 04:39:37;;;;;;;4.83;2.53;;;9.10;99.90;;;;;;5098372;28;20196;-57
2022/11/03 04:42:19;;;;;;;2.97;2.30;;;9.10;99.90;;;;;;5092270;28;20186;-54
2022/11/03 04:44:46;;;;;;;3.37;2.20;;;9.00;99.90;;;;;;5106415;28;20177;-55
2022/11/03 04:47:13;;;;;;;3.10;2.47;;;9.00;99.90;;;;;;5109826;28;20622;-54
2022/11/03 04:49:40;;;;;;;2.73;2.50;;;9.10;99.90;;;;;;5109439;28;20208;-55
2022/11/03 04:52:19;;;;;;;3.97;2.67;;;9.90;99.90;;;;;;5107021;28;20173;-56
2022/11/03 04:54:47;;;;;;;2.67;2.30;;;9.10;99.90;;;;;;5096280;28;20172;-56
2022/11/03 04:57:15;;;;;;;9.50;7.17;;;9.10;99.90;;;;;;5113364;28;20181;-56
2022/11/03 04:59:43;;;;;;;6.10;3.97;;;9.10;99.90;;;;;;5104779;28;20252;-56
2022/11/03 05:02:13;;;;;;;2.80;2.53;;;9.10;99.90;;;;;;5097892;28;20280;-57
2022/11/03 05:04:39;;;;;;;7.63;4.87;;;9.10;99.90;;;;;;5108466;28;20205;-54
2022/11/03 05:07:29;;;;;;;3.57;2.90;;;9.00;99.90;;;;;;5104928;28;20542;-53
2022/11/03 05:09:54;;;;;;;3.57;3.27;;;9.00;99.90;;;;;;5073019;28;20288;-54
2022/11/03 05:12:20;;;;;;;3.47;2.70;;;9.00;99.90;;;;;;5095254;28;20197;-54
2022/11/03 05:14:46;;;;;;;5.23;2.67;;;8.90;99.90;;;;;;5095091;28;20811;-54
2022/11/03 05:17:24;;;;;;;3.60;2.20;;;9.00;99.90;;;;;;5105001;28;20173;-54
2022/11/03 05:20:00;;;;;;;3.90;2.70;;;9.10;99.90;;;;;;5098449;28;20213;-57
2022/11/03 05:22:30;;;;;;;5.13;2.40;;;9.10;99.90;;;;;;5092322;28;20177;-54
2022/11/03 05:25:00;;;;;;;4.00;2.70;;;9.10;99.90;;;;;;5093031;28;20205;-55
2022/11/03 05:27:26;;;;;;;3.60;2.50;;;9.10;99.90;;;;;;5096522;28;21777;-55
2022/11/03 05:29:53;;;;;;;4.00;2.30;;;9.10;99.90;;;;;;5109055;28;20203;-56
2022/11/03 05:32:26;;;;;;;2.63;2.43;;;9.00;99.90;;;;;;5094843;28;20304;-55
2022/11/03 05:34:54;;;;;;;4.47;2.37;;;9.00;99.90;;;;;;5105687;28;20180;-54
2022/11/03 05:37:22;;;;;;;2.57;2.10;;;8.90;99.90;;;;;;5084366;28;20185;-54
2022/11/03 05:39:49;;;;;;;3.73;2.37;;;8.90;99.90;;;;;;5098878;28;20327;-57
2022/11/03 05:42:21;;;;;;;3.67;2.43;;;8.80;99.90;;;;;;5111193;28;20173;-52
2022/11/03 05:44:47;;;;;;;2.90;2.70;;;8.80;99.90;;;;;;5089636;28;20181;-56
2022/11/03 05:47:26;;;;;;;3.27;2.80;;;8.80;99.90;;;;;;5095248;28;20227;-53
2022/11/03 05:49:59;;;;;;;3.17;2.30;;;8.80;99.90;;;;;;5105430;28;20208;-54
2022/11/03 05:52:26;;;;;;;4.47;2.50;;;8.80;99.90;;;;;;5095196;28;20321;-56
2022/11/03 05:54:56;;;;;;;4.03;2.50;;;8.90;99.90;;;;;;5102558;28;20168;-53
2022/11/03 05:57:24;;;;;;;3.70;2.80;;;8.90;99.90;;;;;;5095191;28;20178;-56
2022/11/03 05:59:51;;;;;;;4.47;2.80;;;8.80;99.90;;;;;;5093354;28;20243;-55
2022/11/03 06:02:37;;;;;;;4.70;2.90;;;8.90;99.90;;;;;;5097569;28;20178;-58
2022/11/03 06:05:23;;;;;;;3.20;2.90;;;8.80;99.90;;;;;;5107800;28;20713;-56
2022/11/03 06:07:52;;;;;;;3.33;3.03;;;9.20;99.90;;;;;;5100090;28;20851;-54
2022/11/03 06:10:52;;;;;;;4.83;3.20;;;8.90;99.90;;;;;;5113287;28;20295;-56
2022/11/03 06:13:29;;;;;;;5.47;2.93;;;8.80;99.90;;;;;;5025925;28;20187;-57
2022/11/03 06:16:02;;;;;;;3.53;2.53;;;8.70;99.90;;;;;;5000319;28;20212;-54
2022/11/03 06:18:36;;;;;;;2.80;2.60;;;8.80;99.90;;;;;;5020679;28;20222;-58
2022/11/03 06:21:24;;;;;;;3.20;2.50;;;8.80;99.90;;;;;;5015322;28;20247;-56
2022/11/03 06:23:51;;;;;;;4.60;2.87;;;9.10;99.90;;;;;;5023254;28;20597;-55
2022/11/03 06:26:27;;;;;;;5.77;2.87;;;8.70;99.90;;;;;;5023928;28;20650;-55
2022/11/03 06:28:54;;;;;;;3.70;2.77;;;8.80;99.90;;;;;;5029732;28;20191;-54
2022/11/03 06:31:22;;;;;;;3.33;2.73;;;8.90;99.90;;;;;;5021662;28;20717;-54
2022/11/03 06:33:48;;;;;;;4.97;3.00;;;8.70;99.90;;;;;;5016901;28;20219;-55
2022/11/03 06:36:40;;;;;;;3.10;2.80;;;8.70;99.90;;;;;;5013113;28;20193;-55
2022/11/03 06:39:18;;;;;;;3.50;3.17;;;9.00;99.90;;;;;;5006517;28;20208;-57
2022/11/03 06:41:44;;;;;;;4.30;3.70;;;9.20;99.90;;;;;;5010908;28;20720;-54
2022/11/03 06:44:23;;;;;;;3.40;3.10;;;9.40;99.90;;;;;;5009800;28;20192;-54
2022/11/03 06:46:49;;;;;;;3.27;2.97;;;9.60;99.90;;;;;;4998168;28;20215;-53
2022/11/03 06:49:34;;;;;;;6.50;3.40;;;10.00;99.90;;;;;;5037403;28;20229;-56
2022/11/03 06:52:29;;;;;;;3.33;3.03;;;10.40;99.90;;;;;;5101017;28;20177;-54
2022/11/03 06:55:12;;;;;;;4.10;2.70;;;10.90;99.90;;;;;;5103378;28;20223;-54
2022/11/03 06:57:39;;;;;;;3.93;3.20;;;11.80;99.90;;;;;;5073704;28;20201;-56
2022/11/03 07:00:16;;;;;;;3.37;2.80;;;12.70;99.90;;;;;;5092027;28;20288;-56
2022/11/03 07:03:09;;;;;;;3.33;2.60;;;13.60;99.90;;;;;;5091840;28;20251;-54
2022/11/03 07:05:35;;;;;;;2.87;2.40;;;14.60;99.90;;;;;;5102970;28;20203;-58
2022/11/03 07:08:10;;;;;;;4.23;2.60;;;15.50;99.90;;;;;;5108316;28;20213;-57
2022/11/03 07:10:35;;;;;;;5.73;2.60;;;16.40;99.90;;;;;;5110383;28;20688;-59
2022/11/03 07:13:23;;;;;;;6.03;2.60;;;17.30;99.90;;;;;;5110762;28;20174;-59
2022/11/03 07:15:49;;;;;;;3.53;2.50;;;18.20;99.90;;;;;;5092131;28;20174;-56
2022/11/03 07:18:41;;;;;;;2.17;1.97;;;18.90;98.70;;;;;;5071341;28;20190;-58
2022/11/03 07:21:30;;;;;;;3.07;1.80;;;19.40;97.70;;;;;;5081341;28;20677;-55
2022/11/03 07:23:58;;;;;;;2.40;1.70;;;19.90;96.70;;;;;;5095609;28;20543;-58
2022/11/03 07:26:25;;;;;;;4.90;1.80;;;20.80;95.80;;;;;;5091488;28;20504;-60
2022/11/03 07:28:51;;;;;;;3.97;1.70;;;22.00;94.30;;;;;;5070731;28;20225;-61
2022/11/03 07:31:23;;;;;;;2.35;1.60;;;23.00;92.50;;;;;;5088398;28;20223;-61
2022/11/03 07:33:54;;;;;;;2.33;1.85;;;23.70;90.60;;;;;;5091925;28;20649;-60
2022/11/03 07:36:21;;;;;;;2.60;1.75;;;23.90;89.10;;;;;;5098203;28;20181;-59
2022/11/03 07:38:51;;;;;;;1.90;1.80;;;24.10;88.40;;;;;;5090350;28;20224;-61
2022/11/03 07:41:19;;;;;;;1.95;1.83;;;25.00;87.60;;;;;;5089671;28;20184;-58
2022/11/03 07:43:53;;;;;;;2.25;2.00;;;26.20;84.50;;;;;;5071091;28;20187;-59
2022/11/03 07:46:20;;;;;;;1.92;1.58;;;27.50;79.70;;;;;;5091025;28;20189;-58
2022/11/03 07:48:48;;;;;;;1.60;1.50;;;28.50;74.40;;;;;;5096957;28;20515;-59
2022/11/03 07:51:35;;;;;;;1.98;1.60;;;29.30;71.20;;;;;;5100353;28;20201;-59
2022/11/03 07:54:39;;;;;;;2.55;1.55;;;30.00;68.80;;;;;;5091810;28;20173;-60
2022/11/03 07:57:13;;;;;;;3.25;1.95;;;30.40;64.10;;;;;;5009812;28;20230;-57
2022/11/03 07:59:40;;;;;;;1.92;1.50;;;30.70;63.90;;;;;;4996339;28;20200;-57
2022/11/03 08:02:29;;;;;;;2.30;1.30;;;31.50;60.50;;;;;;5025828;28;20215;-57
2022/11/03 08:04:55;;;;;;;3.28;1.52;;;32.50;58.30;;;;;;4998801;28;20534;-54
2022/11/03 08:07:20;;;;;;;2.22;1.35;;;33.50;56.10;;;;;;5001983;28;20183;-59
2022/11/03 08:09:46;;;;;;;1.67;1.38;;;34.40;54.20;;;;;;5024386;28;20227;-57
2022/11/03 08:12:12;;;;;;;1.95;1.55;;;35.30;52.30;;;;;;5017520;28;20213;-58
2022/11/03 08:14:37;;;;;;;1.63;1.50;;;36.20;50.20;;;;;;5018241;28;20193;-60
2022/11/03 08:17:03;;;;;;;2.33;1.85;;;36.70;48.30;;;;;;5020406;28;20633;-60
2022/11/03 08:19:29;;;;;;;1.50;1.35;;;37.10;46.60;;;;;;5021921;28;20220;-61
2022/11/03 08:21:55;;;;;;;1.98;1.50;;;37.50;45.30;;;;;;5019790;28;20184;-58
2022/11/03 08:24:22;;;;;;;1.60;1.50;;;37.80;44.20;;;;;;5013628;28;20295;-60
2022/11/03 08:26:47;;;;;;;2.78;1.77;;;38.10;43.60;;;;;;5034278;28;20190;-58
2022/11/03 08:29:13;;;;;;;2.97;1.50;;;38.40;42.70;;;;;;5093945;28;20189;-58
2022/11/03 08:31:39;;;;;;;1.83;1.63;;;38.50;41.80;;;;;;5094503;28;20647;-60
2022/11/03 08:34:04;;;;;;;1.60;1.50;;;38.80;41.20;;;;;;5094456;28;20175;-58
2022/11/03 08:36:30;;;;;;;2.40;1.67;;;38.80;40.60;;;;;;5096578;28;20170;-58
2022/11/03 08:38:55;;;;;;;1.70;1.60;;;38.90;39.80;;;;;;5094436;28;20495;-57
2022/11/03 08:41:21;;;;;;;2.60;1.70;;;39.00;39.70;;;;;;5084846;28;20170;-60
2022/11/03 08:43:46;;;;;;;1.92;1.70;;;39.10;39.30;;;;;;5074042;28;20245;-59
2022/11/03 08:46:12;;;;;;;1.88;1.55;;;39.40;38.40;;;;;;5084349;28;20173;-60
2022/11/03 08:48:38;;;;;;;1.88;1.42;;;39.40;37.40;;;;;;5094202;28;20201;-60
2022/11/03 08:51:03;;;;;;;2.80;1.70;;;39.70;38.10;;;;;;5084768;28;20212;-62
2022/11/03 08:53:29;;;;;;;1.70;1.60;;;39.80;37.60;;;;;;5073826;28;20183;-61
2022/11/03 08:55:54;;;;;;;2.05;1.50;;;40.00;37.30;;;;;;5074126;28;20247;-62
2022/11/03 08:58:21;;;;;;;2.80;1.60;;;40.30;36.40;;;;;;5073832;28;20663;-58
2022/11/03 09:00:48;;;;;;;1.67;1.50;;;40.70;35.50;;;;;;5076978;28;20681;-59
2022/11/03 09:03:13;;;;;;;2.30;1.83;;;41.30;36.50;;;;;;5092604;28;20613;-60
2022/11/03 09:05:39;;;;;;;1.50;1.40;;;42.20;36.10;;;;;;5093856;28;20192;-58
2022/11/03 09:08:05;;;;;;;1.85;1.73;;;42.70;35.90;;;;;;5083856;28;20214;-59
2022/11/03 09:10:30;;;;;;;2.05;1.50;;;43.20;34.50;;;;;;5087117;28;20201;-60
2022/11/03 09:12:56;;;;;;;2.13;1.80;;;43.60;34.60;;;;;;5077091;28;20267;-59
2022/11/03 09:15:21;;;;;;;1.70;1.60;;;43.60;32.50;;;;;;5073214;28;20181;-59
2022/11/03 09:17:47;;;;;;;3.22;1.60;;;43.50;31.70;;;;;;5076552;28;20734;-59
2022/11/03 09:20:13;;;;;;;2.33;1.65;;;42.50;34.30;;;;;;5090096;28;20545;-60
2022/11/03 09:22:38;;;;;;;3.10;2.00;;;41.70;32.40;;;;;;5073282;28;20227;-60
2022/11/03 09:25:05;;;;;;;2.83;2.00;;;41.70;33.40;;;;;;5072953;28;20554;-60
2022/11/03 09:27:30;;;;;;;2.92;2.10;;;40.70;34.80;;;;;;5073564;28;20243;-58
2022/11/03 09:29:56;;;;;;;2.70;1.98;;;40.00;35.30;;;;;;5072953;28;20690;-59
2022/11/03 09:32:22;;;;;;;3.40;1.90;;;39.80;35.60;;;;;;5073419;28;20215;-60
2022/11/03 09:34:47;;;;;;;2.28;1.92;;;39.60;35.60;;;;;;5074214;28;20223;-59
2022/11/03 09:37:13;;;;;;;2.10;1.90;;;39.90;35.80;;;;;;5090804;28;20165;-59
2022/11/03 09:39:38;;;;;;;3.25;1.90;;;40.40;35.30;;;;;;5073249;28;20193;-60
2022/11/03 09:42:05;;;;;;;2.10;1.90;;;41.10;35.00;;;;;;5073157;28;20218;-60
2022/11/03 09:44:33;;;;;;;3.88;1.67;;;41.30;35.30;;;;;;5072580;28;20170;-59
2022/11/03 09:46:59;;;;;;;2.17;1.90;;;41.30;33.20;;;;;;5085135;28;20276;-60
2022/11/03 09:49:26;;;;;;;2.08;1.75;;;40.80;33.10;;;;;;5092385;28;20368;-56
2022/11/03 09:51:52;;;;;;;2.95;2.00;;;39.60;34.10;;;;;;5092990;28;20204;-58
2022/11/03 09:54:19;;;;;;;3.92;2.22;;;39.40;34.60;;;;;;5092804;28;20674;-59
2022/11/03 09:56:46;;;;;;;2.10;1.73;;;40.40;35.10;;;;;;5092718;28;20492;-60
2022/11/03 09:59:17;;;;;;;2.13;1.92;;;41.60;34.00;;;;;;5092833;28;20185;-60
2022/11/03 10:01:45;;;;;;;2.72;2.10;;;42.50;33.00;;;;;;5093001;28;20161;-60
2022/11/03 10:04:11;;;;;;;5.75;1.75;;;43.20;32.40;;;;;;5092566;28;20180;-58
2022/11/03 10:06:38;;;;;;;2.65;1.65;;;43.10;31.50;;;;;;5093105;28;20169;-60
2022/11/03 10:09:06;;;;;;;1.98;1.83;;;43.30;32.00;;;;;;5092349;28;20210;-60
2022/11/03 10:11:33;;;;;;;4.30;1.50;;;44.40;31.70;;;;;;5087936;28;20173;-60
2022/11/03 10:13:59;;;;;;;2.58;1.85;;;45.80;31.10;;;;;;5072334;28;20611;-60
2022/11/03 10:16:26;;;;;;;2.40;1.90;;;46.30;29.10;;;;;;5072670;28;20208;-60
2022/11/03 10:18:51;;;;;;;2.35;2.15;;;46.20;28.50;;;;;;5072487;28;20635;-59
2022/11/03 10:21:19;;;;;;;2.95;2.45;;;45.80;29.40;;;;;;5072463;28;20233;-59
2022/11/03 10:23:45;;;;;;;3.10;1.92;;;45.10;30.00;;;;;;5072288;28;20170;-59
2022/11/03 10:26:17;;;;;;;2.28;2.03;;;44.10;30.90;;;;;;5072311;28;20225;-59
2022/11/03 10:29:01;;;;;;;3.03;2.22;;;43.20;31.50;;;;;;5072416;28;20204;-59
2022/11/03 10:31:34;;;;;;;2.65;2.22;;;42.20;32.60;;;;;;5072233;28;20177;-60
2022/11/03 10:33:59;;;;;;;2.72;2.13;;;42.00;32.30;;;;;;5071952;28;20162;-60
2022/11/03 10:36:30;;;;;;;3.70;2.40;;;42.40;32.70;;;;;;5072060;28;20260;-60
2022/11/03 10:38:56;;;;;;;2.70;2.10;;;43.30;30.30;;;;;;5072175;28;20181;-60
2022/11/03 10:41:26;;;;;;;4.28;2.10;;;44.00;30.90;;;;;;5071896;28;20651;-59
2022/11/03 10:44:03;;;;;;;2.67;2.20;;;44.70;30.10;;;;;;5071899;28;20176;-61
2022/11/03 10:46:28;;;;;;;2.85;1.80;;;44.80;29.60;;;;;;5072025;28;20181;-60
2022/11/03 10:49:09;;;;;;;2.03;1.77;;;45.30;29.70;;;;;;5071805;28;20182;-60
2022/11/03 10:51:35;;;;;;;4.55;1.98;;;45.80;29.40;;;;;;5071974;28;20173;-61
2022/11/03 10:54:02;;;;;;;2.08;1.85;;;46.20;29.20;;;;;;5071568;28;20173;-59
2022/11/03 10:56:29;;;;;;;2.75;1.92;;;46.20;29.60;;;;;;5071947;28;20173;-60
2022/11/03 10:58:56;;;;;;;3.22;1.80;;;45.80;29.10;;;;;;5071718;28;20194;-59
2022/11/03 11:01:22;;;;;;;3.17;1.80;;;45.80;29.00;;;;;;5071789;28;20281;-60
2022/11/03 11:03:47;;;;;;;6.03;1.95;;;45.80;28.80;;;;;;5071397;28;20599;-60
2022/11/03 11:06:23;;;;;;;2.42;1.90;;;46.30;28.70;;;;;;5071539;28;20265;-60
2022/11/03 11:08:53;;;;;;;2.28;1.95;;;46.70;28.50;;;;;;5071504;28;20236;-60
2022/11/03 11:11:20;;;;;;;2.15;1.88;;;46.90;28.30;;;;;;5071481;28;20228;-59
2022/11/03 11:14:34;;;;;;;2.20;2.00;;;46.80;28.70;;;;;;5071188;28;20174;-60
2022/11/03 11:17:00;;;;;;;4.00;2.05;;;46.50;28.20;;;;;;5072131;28;20153;-60
2022/11/03 11:19:27;;;;;;;3.08;2.28;;;45.90;28.50;;;;;;5087400;28;20198;-60
2022/11/03 11:21:53;;;;;;;2.70;1.98;;;45.70;28.20;;;;;;5071451;28;20169;-61
2022/11/03 11:24:43;;;;;;;3.28;2.10;;;45.70;28.50;;;;;;5071029;28;20174;-60
2022/11/03 11:27:33;;;;;;;2.25;1.95;;;45.40;28.50;;;;;;5071233;28;20166;-60
2022/11/03 11:30:00;;;;;;;1.98;1.83;;;45.10;28.40;;;;;;5071297;28;20194;-61
2022/11/03 11:32:41;;;;;;;2.85;2.38;;;45.10;28.90;;;;;;5071177;28;20170;-60
2022/11/03 11:35:15;;;;;;;3.40;2.10;;;45.10;28.40;;;;;;5070998;28;20178;-61
2022/11/03 11:37:41;;;;;;;1.98;1.88;;;44.20;29.00;;;;;;5071295;28;20173;-61
2022/11/03 11:40:23;;;;;;;2.75;1.92;;;43.50;29.50;;;;;;5071079;28;20190;-60
2022/11/03 11:43:12;;;;;;;2.25;2.03;;;43.50;30.00;;;;;;5070628;28;20161;-60
2022/11/03 11:46:15;;;;;;;2.88;2.17;;;43.70;29.90;;;;;;5071167;28;20150;-59
2022/11/03 11:48:41;;;;;;;5.78;2.83;;;43.60;29.50;;;;;;5070833;28;20189;-61
2022/11/03 11:51:10;;;;;;;3.15;2.13;;;43.70;29.70;;;;;;5071072;28;20223;-61
2022/11/03 11:53:40;;;;;;;2.90;2.13;;;43.20;30.20;;;;;;5070711;28;20169;-57
2022/11/03 11:56:10;;;;;;;3.55;2.25;;;42.70;30.20;;;;;;5070999;28;20181;-60
2022/11/03 11:58:54;;;;;;;2.83;2.08;;;42.80;30.40;;;;;;5070945;28;20269;-60
2022/11/03 12:01:31;;;;;;;2.38;2.17;;;42.80;30.30;;;;;;5070903;28;20189;-60
2022/11/03 12:04:25;;;;;;;3.03;2.30;;;42.70;31.00;;;;;;5070556;28;20153;-59
2022/11/03 12:06:51;;;;;;;2.53;2.03;;;41.50;31.70;;;;;;5063134;28;20182;-60
2022/11/03 12:09:21;;;;;;;2.20;2.00;;;40.80;31.70;;;;;;5070754;28;20574;-59
2022/11/03 12:11:55;;;;;;;3.10;2.20;;;39.70;32.50;;;;;;5070826;28;20528;-59
2022/11/03 12:14:22;;;;;;;2.70;2.50;;;39.30;33.00;;;;;;5070538;28;20166;-60
2022/11/03 12:16:48;;;;;;;2.05;1.73;;;38.40;33.80;;;;;;5070912;28;20169;-60
2022/11/03 12:19:35;;;;;;;2.10;1.80;;;37.80;35.30;;;;;;5070529;28;20190;-59
2022/11/03 12:22:06;;;;;;;2.85;2.03;;;37.90;34.50;;;;;;5070785;28;20539;-59
2022/11/03 12:24:32;;;;;;;3.42;2.47;;;37.90;34.90;;;;;;5070531;28;20154;-58
2022/11/03 12:26:59;;;;;;;4.13;2.33;;;37.70;36.30;;;;;;5070572;28;20223;-59
2022/11/03 12:29:24;;;;;;;2.75;2.35;;;37.70;35.30;;;;;;5070666;28;20281;-59
2022/11/03 12:31:50;;;;;;;2.35;2.03;;;37.10;36.90;;;;;;5070557;28;20315;-59
2022/11/03 12:34:16;;;;;;;3.40;2.50;;;36.50;38.40;;;;;;5070337;28;20593;-59
2022/11/03 12:36:42;;;;;;;3.08;2.35;;;36.20;38.30;;;;;;5070719;28;20245;-59
2022/11/03 12:39:08;;;;;;;3.80;2.53;;;35.90;38.30;;;;;;5070468;28;20198;-58
2022/11/03 12:41:33;;;;;;;2.80;2.40;;;35.40;39.10;;;;;;5070352;28;20170;-59
2022/11/03 12:43:59;;;;;;;4.20;2.40;;;35.50;39.50;;;;;;5070219;28;20171;-59
2022/11/03 12:46:25;;;;;;;3.47;2.70;;;35.30;40.50;;;;;;5070530;28;20227;-59
2022/11/03 12:48:51;;;;;;;4.93;2.70;;;35.20;39.30;;;;;;5070563;28;20186;-59
2022/11/03 12:51:19;;;;;;;2.38;2.10;;;35.00;38.40;;;;;;5070498;28;20199;-58
2022/11/03 12:53:45;;;;;;;2.22;2.03;;;34.80;39.00;;;;;;5070116;28;20171;-58
2022/11/03 12:56:12;;;;;;;2.53;2.17;;;34.70;39.10;;;;;;5073521;28;20639;-59
2022/11/03 12:58:37;;;;;;;2.10;1.90;;;34.50;39.70;;;;;;5074103;28;20237;-60
2022/11/03 13:01:04;;;;;;;3.00;2.20;;;34.40;41.20;;;;;;5073834;28;20234;-60
2022/11/03 13:03:30;;;;;;;2.22;2.03;;;34.40;40.50;;;;;;5073894;28;20167;-58
2022/11/03 13:05:56;;;;;;;2.65;2.22;;;34.20;40.20;;;;;;5074037;28;20555;-59
2022/11/03 13:08:21;;;;;;;4.22;2.25;;;34.00;40.40;;;;;;5073789;28;20218;-60
2022/11/03 13:10:47;;;;;;;3.03;2.30;;;33.50;40.30;;;;;;5073705;28;20239;-58
2022/11/03 13:13:13;;;;;;;3.13;1.90;;;32.60;41.80;;;;;;5073706;28;20543;-59
2022/11/03 13:15:38;;;;;;;3.55;2.20;;;32.10;42.20;;;;;;5073810;28;20209;-61
2022/11/03 13:18:04;;;;;;;2.35;2.15;;;31.60;42.90;;;;;;5073749;28;20194;-60
2022/11/03 13:20:31;;;;;;;3.03;1.98;;;31.30;43.10;;;;;;5073556;28;20198;-61
2022/11/03 13:22:57;;;;;;;3.92;2.50;;;31.00;44.20;;;;;;5073766;28;20206;-61
2022/11/03 13:25:23;;;;;;;2.58;2.20;;;30.90;44.30;;;;;;5073417;28;20204;-58